sensor_id;sensor_type;location;lat;lon;timestamp;temperature;humidity
4183;DHT22;2105;52.300;9.182;2023-06-22T00:01:16;18.10;99.90
4183;DHT22;2105;52.300;9.182;2023-06-22T00:03:43;18.10;6.40
4183;DHT22;2105;52.300;9.182;2023-06-22T00:06:10;18.00;1.00
4183;DHT22;2105;52.300;9.182;2023-06-22T00:08:37;17.90;1.00
4183;DHT22;2105;52.300;9.182;2023-06-22T00:11:03;17.80;1.00
4183;DHT22;2105;52.300;9.182;2023-06-22T00:13:31;17.70;1.00
4183;DHT22;2105;52.300;9.182;2023-06-22T00:15:58;17.40;1.00
4183;DHT22;2105;52.300;9.182;2023-06-22T00:18:25;17.30;1.00
4183;DHT22;2105;52.300;9.182;2023-06-22T00:20:54;17.40;99.90
4183;DHT22;2105;52.300;9.182;2023-06-22T00:23:23;17.50;99.90
4183;DHT22;2105;52.300;9.182;2023-06-22T00:25:50;17.50;99.90
4183;DHT22;2105;52.300;9.182;2023-06-22T00:28:17;17.20;7.70
4183;DHT22;2105;52.300;9.182;2023-06-22T00:30:45;17.00;1.00
4183;DHT22;2105;52.300;9.182;2023-06-22T00:33:12;17.10;99.90
4183;DHT22;2105;52.300;9.182;2023-06-22T00:35:39;17.10;99.90
4183;DHT22;2105;52.300;9.182;2023-06-22T00:38:07;17.10;99.90
4183;DHT22;2105;52.300;9.182;2023-06-22T00:40:34;17.20;99.90
4183;DHT22;2105;52.300;9.182;2023-06-22T00:43:00;17.00;99.90
4183;DHT22;2105;52.300;9.182;2023-06-22T00:45:27;16.90;99.90
4183;DHT22;2105;52.300;9.182;2023-06-22T00:47:56;16.80;99.90
4183;DHT22;2105;52.300;9.182;2023-06-22T00:50:25;16.80;99.90
4183;DHT22;2105;52.300;9.182;2023-06-22T00:52:53;17.00;99.90
4183;DHT22;2105;52.300;9.182;2023-06-22T00:55:22;17.10;99.90
4183;DHT22;2105;52.300;9.182;2023-06-22T00:57:49;17.10;99.90
4183;DHT22;2105;52.300;9.182;2023-06-22T01:00:16;17.00;99.90
4183;DHT22;2105;52.300;9.182;2023-06-22T01:02:45;17.00;99.90
4183;DHT22;2105;52.300;9.182;2023-06-22T01:05:14;16.80;99.90
4183;DHT22;2105;52.300;9.182;2023-06-22T01:07:45;16.70;99.90
4183;DHT22;2105;52.300;9.182;2023-06-22T01:10:22;16.60;99.90
4183;DHT22;2105;52.300;9.182;2023-06-22T01:12:53;16.60;99.90
4183;DHT22;2105;52.300;9.182;2023-06-22T01:15:25;16.50;99.90
4183;DHT22;2105;52.300;9.182;2023-06-22T01:17:56;16.60;99.90
4183;DHT22;2105;52.300;9.182;2023-06-22T01:20:26;16.60;99.90
4183;DHT22;2105;52.300;9.182;2023-06-22T01:23:04;16.60;99.90
4183;DHT22;2105;52.300;9.182;2023-06-22T01:25:37;16.60;99.90
4183;DHT22;2105;52.300;9.182;2023-06-22T01:28:20;16.70;99.90
4183;DHT22;2105;52.300;9.182;2023-06-22T01:30:51;16.60;99.90
4183;DHT22;2105;52.300;9.182;2023-06-22T01:33:26;16.60;99.90
4183;DHT22;2105;52.300;9.182;2023-06-22T01:35:53;16.50;99.90
4183;DHT22;2105;52.300;9.182;2023-06-22T01:38:20;16.60;99.90
4183;DHT22;2105;52.300;9.182;2023-06-22T01:40:48;16.50;99.90
4183;DHT22;2105;52.300;9.182;2023-06-22T01:43:16;16.50;99.90
4183;DHT22;2105;52.300;9.182;2023-06-22T01:45:43;16.40;99.90
4183;DHT22;2105;52.300;9.182;2023-06-22T01:48:11;16.50;99.90
4183;DHT22;2105;52.300;9.182;2023-06-22T01:50:38;16.60;99.90
4183;DHT22;2105;52.300;9.182;2023-06-22T01:53:04;16.70;99.90
4183;DHT22;2105;52.300;9.182;2023-06-22T01:55:32;16.70;99.90
4183;DHT22;2105;52.300;9.182;2023-06-22T01:57:59;16.70;99.90
4183;DHT22;2105;52.300;9.182;2023-06-22T02:00:29;16.70;99.90
4183;DHT22;2105;52.300;9.182;2023-06-22T02:03:03;16.70;99.90
4183;DHT22;2105;52.300;9.182;2023-06-22T02:05:36;16.60;99.90
4183;DHT22;2105;52.300;9.182;2023-06-22T02:08:08;16.60;99.90
4183;DHT22;2105;52.300;9.182;2023-06-22T02:10:37;16.70;99.90
4183;DHT22;2105;52.300;9.182;2023-06-22T02:13:07;16.80;99.90
4183;DHT22;2105;52.300;9.182;2023-06-22T02:15:34;16.80;99.90
4183;DHT22;2105;52.300;9.182;2023-06-22T02:18:01;16.80;99.90
4183;DHT22;2105;52.300;9.182;2023-06-22T02:20:28;16.80;99.90
4183;DHT22;2105;52.300;9.182;2023-06-22T02:22:56;16.80;99.90
4183;DHT22;2105;52.300;9.182;2023-06-22T02:25:23;16.80;99.90
4183;DHT22;2105;52.300;9.182;2023-06-22T02:27:50;16.80;99.90
4183;DHT22;2105;52.300;9.182;2023-06-22T02:30:16;16.90;99.90
4183;DHT22;2105;52.300;9.182;2023-06-22T02:32:43;16.90;99.90
4183;DHT22;2105;52.300;9.182;2023-06-22T02:35:10;16.80;99.90
4183;DHT22;2105;52.300;9.182;2023-06-22T02:37:37;16.80;99.90
4183;DHT22;2105;52.300;9.182;2023-06-22T02:40:09;16.90;99.90
4183;DHT22;2105;52.300;9.182;2023-06-22T02:42:36;16.90;99.90
4183;DHT22;2105;52.300;9.182;2023-06-22T02:45:03;16.70;99.90
4183;DHT22;2105;52.300;9.182;2023-06-22T02:47:30;16.70;99.90
4183;DHT22;2105;52.300;9.182;2023-06-22T02:49:57;16.60;99.90
4183;DHT22;2105;52.300;9.182;2023-06-22T02:52:23;16.50;99.90
4183;DHT22;2105;52.300;9.182;2023-06-22T02:54:50;16.50;99.90
4183;DHT22;2105;52.300;9.182;2023-06-22T02:57:18;16.50;99.90
4183;DHT22;2105;52.300;9.182;2023-06-22T02:59:45;16.40;99.90
4183;DHT22;2105;52.300;9.182;2023-06-22T03:02:12;16.30;99.90
4183;DHT22;2105;52.300;9.182;2023-06-22T03:04:39;16.30;99.90
4183;DHT22;2105;52.300;9.182;2023-06-22T03:07:05;16.30;99.90
4183;DHT22;2105;52.300;9.182;2023-06-22T03:09:32;16.30;99.90
4183;DHT22;2105;52.300;9.182;2023-06-22T03:11:59;16.40;99.90
4183;DHT22;2105;52.300;9.182;2023-06-22T03:14:27;16.30;99.90
4183;DHT22;2105;52.300;9.182;2023-06-22T03:16:53;16.30;99.90
4183;DHT22;2105;52.300;9.182;2023-06-22T03:19:20;16.30;99.90
4183;DHT22;2105;52.300;9.182;2023-06-22T03:21:47;16.40;99.90
4183;DHT22;2105;52.300;9.182;2023-06-22T03:24:14;16.30;99.90
4183;DHT22;2105;52.300;9.182;2023-06-22T03:26:40;16.20;99.90
4183;DHT22;2105;52.300;9.182;2023-06-22T03:29:07;16.20;99.90
4183;DHT22;2105;52.300;9.182;2023-06-22T03:31:35;16.20;99.90
4183;DHT22;2105;52.300;9.182;2023-06-22T03:34:02;16.10;99.90
4183;DHT22;2105;52.300;9.182;2023-06-22T03:36:28;16.10;99.90
4183;DHT22;2105;52.300;9.182;2023-06-22T03:38:55;16.20;99.90
4183;DHT22;2105;52.300;9.182;2023-06-22T03:41:22;16.20;99.90
4183;DHT22;2105;52.300;9.182;2023-06-22T03:43:48;16.20;99.90
4183;DHT22;2105;52.300;9.182;2023-06-22T03:46:15;16.20;99.90
4183;DHT22;2105;52.300;9.182;2023-06-22T03:48:43;16.30;99.90
4183;DHT22;2105;52.300;9.182;2023-06-22T03:51:10;16.40;99.90
4183;DHT22;2105;52.300;9.182;2023-06-22T03:53:37;16.30;99.90
4183;DHT22;2105;52.300;9.182;2023-06-22T03:56:03;16.40;99.90
4183;DHT22;2105;52.300;9.182;2023-06-22T03:58:30;16.60;99.90
4183;DHT22;2105;52.300;9.182;2023-06-22T04:00:59;16.70;99.90
4183;DHT22;2105;52.300;9.182;2023-06-22T04:03:26;16.70;99.90
4183;DHT22;2105;52.300;9.182;2023-06-22T04:05:54;16.70;99.90
4183;DHT22;2105;52.300;9.182;2023-06-22T04:08:21;16.70;99.90
4183;DHT22;2105;52.300;9.182;2023-06-22T04:10:47;16.80;99.90
4183;DHT22;2105;52.300;9.182;2023-06-22T04:13:14;16.90;99.90
4183;DHT22;2105;52.300;9.182;2023-06-22T04:15:41;17.10;99.90
4183;DHT22;2105;52.300;9.182;2023-06-22T04:18:08;17.20;99.90
4183;DHT22;2105;52.300;9.182;2023-06-22T04:20:35;17.30;99.90
4183;DHT22;2105;52.300;9.182;2023-06-22T04:23:03;17.40;99.90
4183;DHT22;2105;52.300;9.182;2023-06-22T04:25:30;17.40;99.90
4183;DHT22;2105;52.300;9.182;2023-06-22T04:27:56;17.50;99.90
4183;DHT22;2105;52.300;9.182;2023-06-22T04:30:23;17.70;99.90
4183;DHT22;2105;52.300;9.182;2023-06-22T04:32:50;17.70;99.90
4183;DHT22;2105;52.300;9.182;2023-06-22T04:35:21;17.90;99.90
4183;DHT22;2105;52.300;9.182;2023-06-22T04:37:48;18.00;99.90
4183;DHT22;2105;52.300;9.182;2023-06-22T04:40:21;18.00;99.90
4183;DHT22;2105;52.300;9.182;2023-06-22T04:42:48;17.90;99.90
4183;DHT22;2105;52.300;9.182;2023-06-22T04:45:19;17.90;99.90
4183;DHT22;2105;52.300;9.182;2023-06-22T04:47:46;17.90;99.90
4183;DHT22;2105;52.300;9.182;2023-06-22T04:50:13;17.90;99.90
4183;DHT22;2105;52.300;9.182;2023-06-22T04:52:39;17.90;99.90
4183;DHT22;2105;52.300;9.182;2023-06-22T04:55:07;18.00;99.90
4183;DHT22;2105;52.300;9.182;2023-06-22T04:57:35;18.20;99.90
4183;DHT22;2105;52.300;9.182;2023-06-22T05:00:05;18.30;99.90
4183;DHT22;2105;52.300;9.182;2023-06-22T05:02:37;18.50;99.90
4183;DHT22;2105;52.300;9.182;2023-06-22T05:05:05;18.70;99.90
4183;DHT22;2105;52.300;9.182;2023-06-22T05:07:32;18.90;35.40
4183;DHT22;2105;52.300;9.182;2023-06-22T05:09:59;19.10;1.00
4183;DHT22;2105;52.300;9.182;2023-06-22T05:12:27;19.20;1.00
4183;DHT22;2105;52.300;9.182;2023-06-22T05:14:56;19.30;99.90
4183;DHT22;2105;52.300;9.182;2023-06-22T05:17:23;19.20;99.90
4183;DHT22;2105;52.300;9.182;2023-06-22T05:19:49;19.20;99.90
4183;DHT22;2105;52.300;9.182;2023-06-22T05:22:16;19.20;99.90
4183;DHT22;2105;52.300;9.182;2023-06-22T05:24:43;19.20;99.90
4183;DHT22;2105;52.300;9.182;2023-06-22T05:27:10;19.20;99.90
4183;DHT22;2105;52.300;9.182;2023-06-22T05:29:37;19.30;99.90
4183;DHT22;2105;52.300;9.182;2023-06-22T05:32:06;19.30;4.40
4183;DHT22;2105;52.300;9.182;2023-06-22T05:34:33;19.30;99.90
4183;DHT22;2105;52.300;9.182;2023-06-22T05:37:00;19.20;1.00
4183;DHT22;2105;52.300;9.182;2023-06-22T05:39:27;19.20;99.90
4183;DHT22;2105;52.300;9.182;2023-06-22T05:41:53;19.30;99.90
4183;DHT22;2105;52.300;9.182;2023-06-22T05:44:20;19.50;99.90
4183;DHT22;2105;52.300;9.182;2023-06-22T05:46:47;19.70;99.90
4183;DHT22;2105;52.300;9.182;2023-06-22T05:49:15;19.90;1.00
4183;DHT22;2105;52.300;9.182;2023-06-22T05:51:42;20.00;99.90
4183;DHT22;2105;52.300;9.182;2023-06-22T05:54:09;20.30;99.90
4183;DHT22;2105;52.300;9.182;2023-06-22T05:56:38;20.40;1.00
4183;DHT22;2105;52.300;9.182;2023-06-22T05:59:05;20.50;99.90
4183;DHT22;2105;52.300;9.182;2023-06-22T06:01:32;20.50;82.60
4183;DHT22;2105;52.300;9.182;2023-06-22T06:04:00;20.60;99.90
4183;DHT22;2105;52.300;9.182;2023-06-22T06:06:28;20.70;99.90
4183;DHT22;2105;52.300;9.182;2023-06-22T06:08:55;20.70;99.90
4183;DHT22;2105;52.300;9.182;2023-06-22T06:11:21;20.70;99.90
4183;DHT22;2105;52.300;9.182;2023-06-22T06:13:48;20.80;65.30
4183;DHT22;2105;52.300;9.182;2023-06-22T06:16:15;21.00;1.00
4183;DHT22;2105;52.300;9.182;2023-06-22T06:18:42;21.00;1.00
4183;DHT22;2105;52.300;9.182;2023-06-22T06:21:08;21.20;1.00
4183;DHT22;2105;52.300;9.182;2023-06-22T06:23:36;21.30;1.00
4183;DHT22;2105;52.300;9.182;2023-06-22T06:26:03;21.50;1.00
4183;DHT22;2105;52.300;9.182;2023-06-22T06:28:32;21.50;99.90
4183;DHT22;2105;52.300;9.182;2023-06-22T06:30:59;21.60;1.00
4183;DHT22;2105;52.300;9.182;2023-06-22T06:33:26;21.70;1.00
4183;DHT22;2105;52.300;9.182;2023-06-22T06:35:52;21.90;1.00
4183;DHT22;2105;52.300;9.182;2023-06-22T06:38:21;22.00;1.00
4183;DHT22;2105;52.300;9.182;2023-06-22T06:40:49;22.20;99.90
4183;DHT22;2105;52.300;9.182;2023-06-22T06:43:16;22.30;1.00
4183;DHT22;2105;52.300;9.182;2023-06-22T06:45:42;22.50;99.90
4183;DHT22;2105;52.300;9.182;2023-06-22T06:48:09;22.60;99.90
4183;DHT22;2105;52.300;9.182;2023-06-22T06:50:36;22.60;99.90
4183;DHT22;2105;52.300;9.182;2023-06-22T06:53:02;22.80;1.00
4183;DHT22;2105;52.300;9.182;2023-06-22T06:55:30;22.80;1.00
4183;DHT22;2105;52.300;9.182;2023-06-22T06:57:59;22.90;1.00
4183;DHT22;2105;52.300;9.182;2023-06-22T07:00:26;22.90;99.90
4183;DHT22;2105;52.300;9.182;2023-06-22T07:02:53;23.00;99.90
4183;DHT22;2105;52.300;9.182;2023-06-22T07:05:20;23.20;99.90
4183;DHT22;2105;52.300;9.182;2023-06-22T07:07:46;23.40;99.90
4183;DHT22;2105;52.300;9.182;2023-06-22T07:10:13;23.70;99.90
4183;DHT22;2105;52.300;9.182;2023-06-22T07:12:40;24.20;1.00
4183;DHT22;2105;52.300;9.182;2023-06-22T07:15:09;24.40;1.00
4183;DHT22;2105;52.300;9.182;2023-06-22T07:17:38;24.70;99.90
4183;DHT22;2105;52.300;9.182;2023-06-22T07:20:07;25.40;1.00
4183;DHT22;2105;52.300;9.182;2023-06-22T07:22:35;26.00;99.90
4183;DHT22;2105;52.300;9.182;2023-06-22T07:25:02;26.40;1.00
4183;DHT22;2105;52.300;9.182;2023-06-22T07:27:35;26.70;1.00
4183;DHT22;2105;52.300;9.182;2023-06-22T07:30:03;26.30;1.00
4183;DHT22;2105;52.300;9.182;2023-06-22T07:32:31;25.80;9.20
4183;DHT22;2105;52.300;9.182;2023-06-22T07:34:58;25.40;99.90
4183;DHT22;2105;52.300;9.182;2023-06-22T07:37:25;25.20;1.00
4183;DHT22;2105;52.300;9.182;2023-06-22T07:39:53;25.10;1.00
4183;DHT22;2105;52.300;9.182;2023-06-22T07:42:24;25.00;1.00
4183;DHT22;2105;52.300;9.182;2023-06-22T07:44:50;24.90;1.00
4183;DHT22;2105;52.300;9.182;2023-06-22T07:47:17;24.70;1.00
4183;DHT22;2105;52.300;9.182;2023-06-22T07:49:46;24.70;99.90
4183;DHT22;2105;52.300;9.182;2023-06-22T07:52:12;24.70;99.90
4183;DHT22;2105;52.300;9.182;2023-06-22T07:54:39;24.60;99.90
4183;DHT22;2105;52.300;9.182;2023-06-22T07:57:06;24.60;99.90
4183;DHT22;2105;52.300;9.182;2023-06-22T07:59:32;24.60;88.70
4183;DHT22;2105;52.300;9.182;2023-06-22T08:01:59;24.60;99.90
4183;DHT22;2105;52.300;9.182;2023-06-22T08:04:28;24.60;3.60
4183;DHT22;2105;52.300;9.182;2023-06-22T08:06:57;24.70;99.90
4183;DHT22;2105;52.300;9.182;2023-06-22T08:09:24;24.60;99.90
4183;DHT22;2105;52.300;9.182;2023-06-22T08:11:51;24.60;99.90
4183;DHT22;2105;52.300;9.182;2023-06-22T08:14:17;24.70;99.90
4183;DHT22;2105;52.300;9.182;2023-06-22T08:16:44;24.60;97.40
4183;DHT22;2105;52.300;9.182;2023-06-22T08:19:11;24.60;99.90
4183;DHT22;2105;52.300;9.182;2023-06-22T08:21:37;24.50;99.90
4183;DHT22;2105;52.300;9.182;2023-06-22T08:24:06;24.60;99.90
4183;DHT22;2105;52.300;9.182;2023-06-22T08:26:33;24.60;1.00
4183;DHT22;2105;52.300;9.182;2023-06-22T08:29:03;24.70;99.90
4183;DHT22;2105;52.300;9.182;2023-06-22T08:31:30;24.70;99.90
4183;DHT22;2105;52.300;9.182;2023-06-22T08:33:57;24.60;1.00
4183;DHT22;2105;52.300;9.182;2023-06-22T08:36:24;24.60;1.00
4183;DHT22;2105;52.300;9.182;2023-06-22T08:38:51;24.70;1.00
4183;DHT22;2105;52.300;9.182;2023-06-22T08:41:19;24.70;1.00
4183;DHT22;2105;52.300;9.182;2023-06-22T08:43:46;24.80;99.90
4183;DHT22;2105;52.300;9.182;2023-06-22T08:46:12;24.70;1.00
4183;DHT22;2105;52.300;9.182;2023-06-22T08:48:39;24.70;1.00
4183;DHT22;2105;52.300;9.182;2023-06-22T08:51:06;24.70;1.00
4183;DHT22;2105;52.300;9.182;2023-06-22T08:53:32;24.60;99.90
4183;DHT22;2105;52.300;9.182;2023-06-22T08:56:00;24.60;1.00
4183;DHT22;2105;52.300;9.182;2023-06-22T08:58:29;24.70;37.80
4183;DHT22;2105;52.300;9.182;2023-06-22T09:00:55;24.70;1.00
4183;DHT22;2105;52.300;9.182;2023-06-22T09:03:22;24.90;8.90
4183;DHT22;2105;52.300;9.182;2023-06-22T09:05:52;24.90;1.00
4183;DHT22;2105;52.300;9.182;2023-06-22T09:08:19;24.90;99.90
4183;DHT22;2105;52.300;9.182;2023-06-22T09:10:46;24.80;1.00
4183;DHT22;2105;52.300;9.182;2023-06-22T09:13:13;24.70;1.00
4183;DHT22;2105;52.300;9.182;2023-06-22T09:15:41;24.80;99.90
4183;DHT22;2105;52.300;9.182;2023-06-22T09:18:10;24.80;12.70
4183;DHT22;2105;52.300;9.182;2023-06-22T09:20:36;24.80;1.00
4183;DHT22;2105;52.300;9.182;2023-06-22T09:23:03;24.80;1.00
4183;DHT22;2105;52.300;9.182;2023-06-22T09:25:30;24.80;1.00
4183;DHT22;2105;52.300;9.182;2023-06-22T09:27:56;24.80;1.00
4183;DHT22;2105;52.300;9.182;2023-06-22T09:30:23;24.90;99.90
4183;DHT22;2105;52.300;9.182;2023-06-22T09:32:51;24.80;1.00
4183;DHT22;2105;52.300;9.182;2023-06-22T09:35:18;24.90;1.00
4183;DHT22;2105;52.300;9.182;2023-06-22T09:37:45;25.00;1.00
4183;DHT22;2105;52.300;9.182;2023-06-22T09:40:12;25.50;99.90
4183;DHT22;2105;52.300;9.182;2023-06-22T09:42:42;25.90;31.80
4183;DHT22;2105;52.300;9.182;2023-06-22T09:45:09;26.10;1.00
4183;DHT22;2105;52.300;9.182;2023-06-22T09:47:36;26.20;1.00
4183;DHT22;2105;52.300;9.182;2023-06-22T09:50:05;26.20;1.00
4183;DHT22;2105;52.300;9.182;2023-06-22T09:52:32;26.30;1.00
4183;DHT22;2105;52.300;9.182;2023-06-22T09:54:59;26.10;1.00
4183;DHT22;2105;52.300;9.182;2023-06-22T09:57:26;26.00;1.00
4183;DHT22;2105;52.300;9.182;2023-06-22T09:59:52;25.80;1.00
4183;DHT22;2105;52.300;9.182;2023-06-22T10:02:19;25.70;1.00
4183;DHT22;2105;52.300;9.182;2023-06-22T10:04:46;25.50;99.90
4183;DHT22;2105;52.300;9.182;2023-06-22T10:07:14;25.40;99.90
4183;DHT22;2105;52.300;9.182;2023-06-22T10:09:40;25.30;99.90
4183;DHT22;2105;52.300;9.182;2023-06-22T10:12:08;25.20;1.00
4183;DHT22;2105;52.300;9.182;2023-06-22T10:14:34;25.40;82.80
4183;DHT22;2105;52.300;9.182;2023-06-22T10:17:02;25.50;99.90
4183;DHT22;2105;52.300;9.182;2023-06-22T10:19:29;25.50;1.00
4183;DHT22;2105;52.300;9.182;2023-06-22T10:21:56;25.50;1.00
4183;DHT22;2105;52.300;9.182;2023-06-22T10:24:24;25.50;1.00
4183;DHT22;2105;52.300;9.182;2023-06-22T10:26:50;25.50;1.00
4183;DHT22;2105;52.300;9.182;2023-06-22T10:29:17;25.60;1.00
4183;DHT22;2105;52.300;9.182;2023-06-22T10:31:44;25.70;1.00
4183;DHT22;2105;52.300;9.182;2023-06-22T10:34:10;25.90;99.90
4183;DHT22;2105;52.300;9.182;2023-06-22T10:36:37;26.00;99.90
4183;DHT22;2105;52.300;9.182;2023-06-22T10:39:04;26.10;99.90
4183;DHT22;2105;52.300;9.182;2023-06-22T10:41:33;26.10;1.00
4183;DHT22;2105;52.300;9.182;2023-06-22T10:43:59;26.10;1.00
4183;DHT22;2105;52.300;9.182;2023-06-22T10:46:26;26.10;1.00
4183;DHT22;2105;52.300;9.182;2023-06-22T10:48:53;26.20;1.00
4183;DHT22;2105;52.300;9.182;2023-06-22T10:51:22;26.20;1.00
4183;DHT22;2105;52.300;9.182;2023-06-22T10:53:49;26.30;1.00
4183;DHT22;2105;52.300;9.182;2023-06-22T10:56:16;26.40;1.00
4183;DHT22;2105;52.300;9.182;2023-06-22T10:58:45;26.50;1.00
4183;DHT22;2105;52.300;9.182;2023-06-22T11:01:12;26.70;1.00
4183;DHT22;2105;52.300;9.182;2023-06-22T11:03:39;26.70;1.00
4183;DHT22;2105;52.300;9.182;2023-06-22T11:06:06;26.80;99.90
4183;DHT22;2105;52.300;9.182;2023-06-22T11:08:32;26.90;99.90
4183;DHT22;2105;52.300;9.182;2023-06-22T11:10:59;26.80;99.90
4183;DHT22;2105;52.300;9.182;2023-06-22T11:13:26;26.80;99.90
4183;DHT22;2105;52.300;9.182;2023-06-22T11:15:54;26.70;99.90
4183;DHT22;2105;52.300;9.182;2023-06-22T11:18:21;26.70;1.00
4183;DHT22;2105;52.300;9.182;2023-06-22T11:20:48;26.70;1.00
4183;DHT22;2105;52.300;9.182;2023-06-22T11:23:15;26.80;99.90
4183;DHT22;2105;52.300;9.182;2023-06-22T11:25:41;26.80;1.00
4183;DHT22;2105;52.300;9.182;2023-06-22T11:28:08;27.00;1.00
4183;DHT22;2105;52.300;9.182;2023-06-22T11:30:35;27.10;1.00
4183;DHT22;2105;52.300;9.182;2023-06-22T11:33:03;27.10;1.00
4183;DHT22;2105;52.300;9.182;2023-06-22T11:35:29;27.20;1.00
4183;DHT22;2105;52.300;9.182;2023-06-22T11:37:56;27.60;1.00
4183;DHT22;2105;52.300;9.182;2023-06-22T11:40:23;27.80;1.00
4183;DHT22;2105;52.300;9.182;2023-06-22T11:42:50;27.70;1.00
4183;DHT22;2105;52.300;9.182;2023-06-22T11:45:17;27.70;1.00
4183;DHT22;2105;52.300;9.182;2023-06-22T11:47:45;27.70;1.00
4183;DHT22;2105;52.300;9.182;2023-06-22T11:50:13;27.80;1.00
4183;DHT22;2105;52.300;9.182;2023-06-22T11:52:40;28.00;1.00
4183;DHT22;2105;52.300;9.182;2023-06-22T11:55:07;27.90;1.00
4183;DHT22;2105;52.300;9.182;2023-06-22T11:57:35;27.90;1.00
4183;DHT22;2105;52.300;9.182;2023-06-22T12:00:03;27.70;1.00
4183;DHT22;2105;52.300;9.182;2023-06-22T12:02:41;27.50;1.00
4183;DHT22;2105;52.300;9.182;2023-06-22T12:05:08;27.30;1.00
4183;DHT22;2105;52.300;9.182;2023-06-22T12:07:36;27.20;1.00
4183;DHT22;2105;52.300;9.182;2023-06-22T12:10:03;27.10;1.00
4183;DHT22;2105;52.300;9.182;2023-06-22T12:12:30;27.20;1.00
4183;DHT22;2105;52.300;9.182;2023-06-22T12:14:56;27.30;1.00
4183;DHT22;2105;52.300;9.182;2023-06-22T12:17:23;27.40;1.00
4183;DHT22;2105;52.300;9.182;2023-06-22T12:19:50;27.60;1.00
4183;DHT22;2105;52.300;9.182;2023-06-22T12:22:17;27.70;1.00
4183;DHT22;2105;52.300;9.182;2023-06-22T12:24:44;27.60;1.00
4183;DHT22;2105;52.300;9.182;2023-06-22T12:27:11;27.40;1.00
4183;DHT22;2105;52.300;9.182;2023-06-22T12:29:38;27.40;1.00
4183;DHT22;2105;52.300;9.182;2023-06-22T12:32:05;27.30;1.00
4183;DHT22;2105;52.300;9.182;2023-06-22T12:34:32;27.00;1.00
4183;DHT22;2105;52.300;9.182;2023-06-22T12:36:59;26.90;12.80
4183;DHT22;2105;52.300;9.182;2023-06-22T12:39:26;26.80;1.00
4183;DHT22;2105;52.300;9.182;2023-06-22T12:41:54;26.80;1.00
4183;DHT22;2105;52.300;9.182;2023-06-22T12:44:21;26.80;1.00
4183;DHT22;2105;52.300;9.182;2023-06-22T12:46:47;26.80;1.00
4183;DHT22;2105;52.300;9.182;2023-06-22T12:49:14;26.80;1.00
4183;DHT22;2105;52.300;9.182;2023-06-22T12:51:41;26.80;78.10
4183;DHT22;2105;52.300;9.182;2023-06-22T12:54:08;26.50;99.90
4183;DHT22;2105;52.300;9.182;2023-06-22T12:56:35;26.20;34.90
4183;DHT22;2105;52.300;9.182;2023-06-22T12:59:03;26.00;1.00
4183;DHT22;2105;52.300;9.182;2023-06-22T13:01:31;25.90;1.00
4183;DHT22;2105;52.300;9.182;2023-06-22T13:03:59;25.70;1.00
4183;DHT22;2105;52.300;9.182;2023-06-22T13:06:25;25.70;99.90
4183;DHT22;2105;52.300;9.182;2023-06-22T13:08:52;25.60;99.90
4183;DHT22;2105;52.300;9.182;2023-06-22T13:11:19;25.50;99.90
4183;DHT22;2105;52.300;9.182;2023-06-22T13:13:46;25.40;99.90
4183;DHT22;2105;52.300;9.182;2023-06-22T13:16:14;25.40;99.90
4183;DHT22;2105;52.300;9.182;2023-06-22T13:18:41;25.30;1.00
4183;DHT22;2105;52.300;9.182;2023-06-22T13:21:08;25.20;99.90
4183;DHT22;2105;52.300;9.182;2023-06-22T13:23:34;25.00;99.90
4183;DHT22;2105;52.300;9.182;2023-06-22T13:26:01;24.90;1.00
4183;DHT22;2105;52.300;9.182;2023-06-22T13:28:28;24.90;1.00
4183;DHT22;2105;52.300;9.182;2023-06-22T13:30:55;24.90;1.00
4183;DHT22;2105;52.300;9.182;2023-06-22T13:33:23;24.90;1.00
4183;DHT22;2105;52.300;9.182;2023-06-22T13:35:50;24.90;99.90
4183;DHT22;2105;52.300;9.182;2023-06-22T13:38:16;24.80;1.00
4183;DHT22;2105;52.300;9.182;2023-06-22T13:40:44;24.80;1.00
4183;DHT22;2105;52.300;9.182;2023-06-22T13:43:11;24.80;1.00
4183;DHT22;2105;52.300;9.182;2023-06-22T13:45:37;24.80;1.00
4183;DHT22;2105;52.300;9.182;2023-06-22T13:48:05;24.80;99.90
4183;DHT22;2105;52.300;9.182;2023-06-22T13:50:33;24.70;1.00
4183;DHT22;2105;52.300;9.182;2023-06-22T13:53:00;24.70;1.00
4183;DHT22;2105;52.300;9.182;2023-06-22T13:55:26;24.70;1.00
4183;DHT22;2105;52.300;9.182;2023-06-22T13:57:53;24.60;57.10
4183;DHT22;2105;52.300;9.182;2023-06-22T14:00:20;24.50;1.00
4183;DHT22;2105;52.300;9.182;2023-06-22T14:02:47;24.40;99.90
4183;DHT22;2105;52.300;9.182;2023-06-22T14:05:13;24.40;1.00
4183;DHT22;2105;52.300;9.182;2023-06-22T14:07:41;24.30;1.00
4183;DHT22;2105;52.300;9.182;2023-06-22T14:10:09;24.20;1.00
4183;DHT22;2105;52.300;9.182;2023-06-22T14:12:36;24.30;99.90
4183;DHT22;2105;52.300;9.182;2023-06-22T14:15:03;24.20;99.90
4183;DHT22;2105;52.300;9.182;2023-06-22T14:17:30;24.20;99.90
4183;DHT22;2105;52.300;9.182;2023-06-22T14:19:57;24.00;99.90
4183;DHT22;2105;52.300;9.182;2023-06-22T14:22:24;23.90;99.90
4183;DHT22;2105;52.300;9.182;2023-06-22T14:24:53;23.80;57.30
4183;DHT22;2105;52.300;9.182;2023-06-22T14:27:21;23.70;99.90
4183;DHT22;2105;52.300;9.182;2023-06-22T14:29:48;23.60;99.90
4183;DHT22;2105;52.300;9.182;2023-06-22T14:32:14;23.40;1.00
4183;DHT22;2105;52.300;9.182;2023-06-22T14:34:41;23.30;1.00
4183;DHT22;2105;52.300;9.182;2023-06-22T14:37:09;23.00;18.40
4183;DHT22;2105;52.300;9.182;2023-06-22T14:39:36;22.80;99.90
4183;DHT22;2105;52.300;9.182;2023-06-22T14:42:05;22.70;99.90
4183;DHT22;2105;52.300;9.182;2023-06-22T14:44:32;22.70;99.90
4183;DHT22;2105;52.300;9.182;2023-06-22T14:46:58;22.70;99.90
4183;DHT22;2105;52.300;9.182;2023-06-22T14:49:26;22.70;99.90
4183;DHT22;2105;52.300;9.182;2023-06-22T14:51:52;22.60;99.90
4183;DHT22;2105;52.300;9.182;2023-06-22T14:54:19;22.50;99.90
4183;DHT22;2105;52.300;9.182;2023-06-22T14:56:46;22.50;99.90
4183;DHT22;2105;52.300;9.182;2023-06-22T14:59:14;22.50;99.90
4183;DHT22;2105;52.300;9.182;2023-06-22T15:01:41;22.60;99.90
4183;DHT22;2105;52.300;9.182;2023-06-22T15:04:08;22.60;99.90
4183;DHT22;2105;52.300;9.182;2023-06-22T15:06:35;22.50;99.90
4183;DHT22;2105;52.300;9.182;2023-06-22T15:09:01;22.50;99.90
4183;DHT22;2105;52.300;9.182;2023-06-22T15:11:28;22.50;99.90
4183;DHT22;2105;52.300;9.182;2023-06-22T15:13:58;22.50;99.90
4183;DHT22;2105;52.300;9.182;2023-06-22T15:16:27;22.40;99.90
4183;DHT22;2105;52.300;9.182;2023-06-22T15:18:55;22.30;99.90
4183;DHT22;2105;52.300;9.182;2023-06-22T15:21:22;22.10;99.90
4183;DHT22;2105;52.300;9.182;2023-06-22T15:23:48;21.90;99.90
4183;DHT22;2105;52.300;9.182;2023-06-22T15:26:15;21.80;99.90
4183;DHT22;2105;52.300;9.182;2023-06-22T15:28:42;21.70;99.90
4183;DHT22;2105;52.300;9.182;2023-06-22T15:31:09;21.60;99.90
4183;DHT22;2105;52.300;9.182;2023-06-22T15:33:37;21.50;99.90
4183;DHT22;2105;52.300;9.182;2023-06-22T15:36:04;21.40;99.90
4183;DHT22;2105;52.300;9.182;2023-06-22T15:38:32;21.20;99.90
4183;DHT22;2105;52.300;9.182;2023-06-22T15:40:59;21.20;99.90
4183;DHT22;2105;52.300;9.182;2023-06-22T15:43:25;21.00;99.90
4183;DHT22;2105;52.300;9.182;2023-06-22T15:45:52;21.00;99.90
4183;DHT22;2105;52.300;9.182;2023-06-22T15:48:20;20.90;99.90
4183;DHT22;2105;52.300;9.182;2023-06-22T15:50:48;20.90;99.90
4183;DHT22;2105;52.300;9.182;2023-06-22T15:53:14;21.00;99.90
4183;DHT22;2105;52.300;9.182;2023-06-22T15:55:41;21.00;99.90
4183;DHT22;2105;52.300;9.182;2023-06-22T15:58:08;21.00;99.90
4183;DHT22;2105;52.300;9.182;2023-06-22T16:00:35;21.10;99.90
4183;DHT22;2105;52.300;9.182;2023-06-22T16:03:02;21.00;99.90
4183;DHT22;2105;52.300;9.182;2023-06-22T16:05:28;21.10;99.90
4183;DHT22;2105;52.300;9.182;2023-06-22T16:07:56;21.10;99.90